Time;durP1;ratioP1;P1;durP2;ratioP2;P2;SDS_P1;SDS_P2;PMS_P1;PMS_P2;Temp;Humidity;BMP_temperature;BMP_pressure;BME280_temperature;BME280_humidity;BME280_pressure;Samples;Min_cycle;Max_cycle;Signal;HPM_P1;HPM_P2
2022/08/18 00:00:47;;;;;;;37.72;17.15;;;;;;;;;;5031246;28;20041;-83
2022/08/18 00:03:13;;;;;;;36.13;15.75;;;;;;;;;;5033233;28;20496;-85
2022/08/18 00:05:39;;;;;;;34.25;15.15;;;;;;;;;;5030522;28;20100;-83
2022/08/18 00:08:04;;;;;;;33.47;16.00;;;;;;;;;;5028017;28;20046;-82
2022/08/18 00:10:30;;;;;;;37.45;17.77;;;;;;;;;;5049793;28;20388;-84
2022/08/18 00:12:56;;;;;;;38.13;17.73;;;;;;;;;;5029816;28;20026;-89
2022/08/18 00:15:21;;;;;;;37.70;15.48;;;;;;;;;;5063559;28;20037;-84
2022/08/18 00:17:46;;;;;;;35.22;15.75;;;;;;;;;;5029275;28;20040;-89
2022/08/18 00:20:13;;;;;;;40.80;18.90;;;;;;;;;;5040260;28;20113;-84
2022/08/18 00:22:39;;;;;;;41.53;20.00;;;;;;;;;;5045033;28;20041;-88
2022/08/18 00:25:05;;;;;;;47.95;21.65;;;;;;;;;;5032104;28;20032;-89
2022/08/18 00:27:31;;;;;;;35.03;18.83;;;;;;;;;;5028570;28;20108;-88
2022/08/18 00:29:57;;;;;;;44.97;24.33;;;;;;;;;;5031002;28;20460;-88
2022/08/18 00:32:24;;;;;;;33.90;17.17;;;;;;;;;;5032085;28;20025;-87
2022/08/18 00:34:50;;;;;;;35.55;18.33;;;;;;;;;;5029425;28;20478;-84
2022/08/18 00:37:15;;;;;;;38.72;18.83;;;;;;;;;;5043888;28;20037;-87
2022/08/18 00:39:41;;;;;;;38.17;17.85;;;;;;;;;;5028356;28;20477;-84
2022/08/18 00:42:16;;;;;;;28.65;16.45;;;;;;;;;;5025263;28;20036;-84
2022/08/18 00:44:42;;;;;;;43.03;18.45;;;;;;;;;;5030764;28;20493;-84
2022/08/18 00:47:07;;;;;;;37.17;18.50;;;;;;;;;;5028679;28;20147;-88
2022/08/18 00:49:33;;;;;;;31.15;16.65;;;;;;;;;;5052737;28;20018;-88
2022/08/18 00:52:00;;;;;;;49.03;18.98;;;;;;;;;;5040629;28;20128;-88
2022/08/18 00:54:30;;;;;;;35.03;16.33;;;;;;;;;;5027691;28;20029;-87
2022/08/18 00:56:59;;;;;;;50.42;18.90;;;;;;;;;;5027827;28;20083;-89
2022/08/18 00:59:34;;;;;;;44.40;20.23;;;;;;;;;;5063043;28;20116;-88
2022/08/18 01:02:01;;;;;;;34.08;18.02;;;;;;;;;;5039833;28;20124;-88
2022/08/18 01:04:42;;;;;;;36.30;18.13;;;;;;;;;;5026714;28;20111;-84
2022/08/18 01:07:19;;;;;;;42.97;17.48;;;;;;;;;;5029366;28;20521;-89
2022/08/18 01:09:48;;;;;;;31.92;17.75;;;;;;;;;;5029876;28;20498;-88
2022/08/18 01:12:13;;;;;;;37.78;17.95;;;;;;;;;;5028415;28;20116;-84
2022/08/18 01:14:38;;;;;;;49.78;22.80;;;;;;;;;;5047074;28;20061;-84
2022/08/18 01:22:35;;;;;;;37.22;17.13;;;;;;;;;;5024873;28;20198;-88
2022/08/18 01:27:45;;;;;;;40.50;17.25;;;;;;;;;;5029586;28;20595;-85
2022/08/18 01:30:12;;;;;;;50.92;16.95;;;;;;;;;;5027244;28;20049;-89
2022/08/18 01:32:38;;;;;;;46.95;21.60;;;;;;;;;;5043826;28;20092;-84
2022/08/18 01:35:03;;;;;;;36.17;18.67;;;;;;;;;;5034953;28;20029;-84
2022/08/18 01:37:29;;;;;;;31.05;14.52;;;;;;;;;;5045726;28;20042;-84
2022/08/18 01:39:54;;;;;;;40.70;18.15;;;;;;;;;;5047611;28;20436;-84
2022/08/18 01:42:19;;;;;;;33.88;15.27;;;;;;;;;;5062372;28;20036;-89
2022/08/18 01:44:46;;;;;;;36.25;17.40;;;;;;;;;;5027906;28;20034;-88
2022/08/18 01:47:11;;;;;;;48.47;21.95;;;;;;;;;;5027189;28;20080;-88
2022/08/18 01:49:41;;;;;;;39.30;19.05;;;;;;;;;;5028918;28;20022;-89
2022/08/18 01:52:07;;;;;;;35.17;16.58;;;;;;;;;;5027203;28;20079;-84
2022/08/18 01:54:33;;;;;;;38.90;17.60;;;;;;;;;;5024365;28;20545;-84
2022/08/18 01:56:58;;;;;;;36.72;16.98;;;;;;;;;;5043006;28;20033;-88
2022/08/18 01:59:23;;;;;;;33.13;16.77;;;;;;;;;;5043865;28;20079;-88
2022/08/18 02:01:51;;;;;;;44.42;19.95;;;;;;;;;;5043205;28;20045;-83
2022/08/18 02:04:16;;;;;;;38.20;17.05;;;;;;;;;;5033286;28;20532;-83
2022/08/18 02:06:42;;;;;;;35.17;17.13;;;;;;;;;;5048121;28;20025;-82
2022/08/18 02:09:10;;;;;;;35.35;18.75;;;;;;;;;;5036677;28;20041;-86
2022/08/18 02:11:35;;;;;;;33.75;16.20;;;;;;;;;;5022460;28;20028;-88
2022/08/18 02:14:00;;;;;;;30.08;16.33;;;;;;;;;;5047694;28;20418;-87
2022/08/18 02:16:26;;;;;;;33.05;16.33;;;;;;;;;;5027734;28;20532;-84
2022/08/18 02:18:51;;;;;;;46.40;19.70;;;;;;;;;;5038161;28;20025;-87
2022/08/18 02:21:20;;;;;;;43.42;17.48;;;;;;;;;;5030160;28;20465;-88
2022/08/18 02:23:46;;;;;;;38.55;16.40;;;;;;;;;;5044910;28;20030;-84
2022/08/18 02:26:13;;;;;;;34.28;18.08;;;;;;;;;;5026047;28;20068;-84
2022/08/18 02:28:42;;;;;;;27.70;16.63;;;;;;;;;;5027235;28;20017;-84
2022/08/18 02:31:13;;;;;;;32.55;15.07;;;;;;;;;;5029026;28;20041;-84
2022/08/18 02:33:39;;;;;;;36.47;15.20;;;;;;;;;;5028391;28;20033;-83
2022/08/18 02:36:05;;;;;;;37.58;17.63;;;;;;;;;;5025957;28;20064;-87
2022/08/18 02:38:31;;;;;;;27.13;15.88;;;;;;;;;;5043867;28;20060;-84
2022/08/18 02:40:57;;;;;;;31.20;16.70;;;;;;;;;;5023231;28;20030;-84
2022/08/18 02:43:23;;;;;;;30.63;16.42;;;;;;;;;;5029243;28;20021;-88
2022/08/18 02:45:48;;;;;;;37.78;17.98;;;;;;;;;;5044686;28;20032;-83
2022/08/18 02:48:13;;;;;;;29.63;15.73;;;;;;;;;;5026265;28;20030;-86
2022/08/18 02:50:47;;;;;;;43.10;20.33;;;;;;;;;;5043381;28;20530;-84
2022/08/18 02:53:23;;;;;;;43.30;18.58;;;;;;;;;;5026083;28;20026;-85
2022/08/18 02:55:49;;;;;;;35.25;17.98;;;;;;;;;;5045777;28;20029;-84
2022/08/18 02:58:19;;;;;;;39.95;20.10;;;;;;;;;;5028157;28;20032;-85
2022/08/18 03:00:47;;;;;;;39.78;20.00;;;;;;;;;;5030076;28;20030;-85
2022/08/18 03:03:12;;;;;;;40.83;21.25;;;;;;;;;;5025700;28;20366;-84
2022/08/18 03:05:38;;;;;;;45.47;20.33;;;;;;;;;;5025254;28;20082;-88
2022/08/18 03:08:03;;;;;;;37.28;19.90;;;;;;;;;;5025762;28;20283;-84
2022/08/18 03:10:29;;;;;;;41.72;20.88;;;;;;;;;;5029007;28;20032;-87
2022/08/18 03:12:54;;;;;;;43.03;21.30;;;;;;;;;;5025991;28;20029;-87
2022/08/18 03:15:19;;;;;;;37.80;20.17;;;;;;;;;;5043645;28;20032;-89
2022/08/18 03:17:44;;;;;;;50.28;21.35;;;;;;;;;;5024630;28;20164;-85
2022/08/18 03:20:10;;;;;;;32.28;19.23;;;;;;;;;;5043982;28;20034;-88
2022/08/18 03:22:36;;;;;;;36.58;19.00;;;;;;;;;;5027468;28;20074;-88
2022/08/18 03:25:02;;;;;;;42.63;20.85;;;;;;;;;;5018691;28;20052;-86
2022/08/18 03:27:27;;;;;;;45.28;20.55;;;;;;;;;;5045982;28;20017;-86
2022/08/18 03:29:53;;;;;;;43.55;21.95;;;;;;;;;;5033186;28;20091;-86
2022/08/18 03:32:18;;;;;;;48.38;20.50;;;;;;;;;;5030459;28;20041;-83
2022/08/18 03:34:43;;;;;;;46.22;22.05;;;;;;;;;;5042624;28;20037;-87
2022/08/18 03:37:09;;;;;;;38.75;19.05;;;;;;;;;;5031660;28;20686;-87
2022/08/18 03:39:34;;;;;;;43.55;19.63;;;;;;;;;;5030098;28;20037;-83
2022/08/18 03:41:59;;;;;;;46.63;20.85;;;;;;;;;;5030953;28;20128;-87
2022/08/18 03:44:25;;;;;;;40.45;21.42;;;;;;;;;;5032773;28;20041;-87
2022/08/18 03:46:51;;;;;;;39.08;21.05;;;;;;;;;;5029889;28;20081;-84
2022/08/18 03:49:17;;;;;;;39.65;20.05;;;;;;;;;;5032797;28;20013;-86
2022/08/18 03:51:43;;;;;;;42.92;22.45;;;;;;;;;;5056709;28;20037;-86
2022/08/18 03:54:08;;;;;;;38.08;20.67;;;;;;;;;;5027148;28;20033;-83
2022/08/18 03:56:35;;;;;;;46.30;20.23;;;;;;;;;;5026360;28;20029;-83
2022/08/18 03:59:02;;;;;;;35.50;19.70;;;;;;;;;;5032077;28;20053;-87
2022/08/18 04:01:31;;;;;;;48.70;21.77;;;;;;;;;;5026200;28;20033;-88
2022/08/18 04:03:58;;;;;;;33.50;20.80;;;;;;;;;;5033257;28;20018;-86
2022/08/18 04:06:24;;;;;;;44.42;20.92;;;;;;;;;;5029971;28;20056;-86
2022/08/18 04:08:51;;;;;;;44.20;20.83;;;;;;;;;;5030901;28;20069;-83
2022/08/18 04:11:16;;;;;;;36.17;18.42;;;;;;;;;;5045964;28;20389;-86
2022/08/18 04:13:41;;;;;;;38.70;18.05;;;;;;;;;;5032705;28;20022;-83
2022/08/18 04:16:07;;;;;;;35.92;19.48;;;;;;;;;;5029548;28;20519;-84
2022/08/18 04:18:35;;;;;;;37.00;19.08;;;;;;;;;;5032304;28;20052;-82
2022/08/18 04:21:06;;;;;;;34.13;16.55;;;;;;;;;;5028967;28;20025;-86
2022/08/18 04:23:32;;;;;;;42.20;18.00;;;;;;;;;;5031245;28;20590;-88
2022/08/18 04:25:58;;;;;;;37.90;19.23;;;;;;;;;;5031647;28;20060;-86
2022/08/18 04:28:24;;;;;;;32.58;17.90;;;;;;;;;;5026291;28;20032;-87
2022/08/18 04:30:49;;;;;;;35.97;19.92;;;;;;;;;;5061001;28;20477;-87
2022/08/18 04:33:14;;;;;;;41.05;19.00;;;;;;;;;;5027492;28;20109;-84
2022/08/18 04:35:40;;;;;;;43.58;22.23;;;;;;;;;;5029930;28;20025;-86
2022/08/18 04:38:06;;;;;;;41.25;19.75;;;;;;;;;;5036697;28;20037;-83
2022/08/18 04:40:32;;;;;;;40.20;19.50;;;;;;;;;;5031301;28;20026;-87
2022/08/18 04:42:57;;;;;;;37.38;19.40;;;;;;;;;;5028013;28;20083;-85
2022/08/18 04:45:23;;;;;;;40.00;18.02;;;;;;;;;;5035406;28;20497;-86
2022/08/18 04:47:48;;;;;;;37.55;20.58;;;;;;;;;;5031015;28;20436;-86
2022/08/18 04:50:13;;;;;;;34.65;18.17;;;;;;;;;;5033475;28;20029;-83
2022/08/18 04:55:22;;;;;;;38.33;19.08;;;;;;;;;;5023856;28;20029;-85
2022/08/18 04:57:47;;;;;;;42.45;20.10;;;;;;;;;;5028865;28;20021;-88
2022/08/18 05:00:13;;;;;;;37.08;19.40;;;;;;;;;;5030274;28;20048;-89
2022/08/18 05:02:38;;;;;;;42.25;19.83;;;;;;;;;;5031915;28;20039;-83
2022/08/18 05:05:04;;;;;;;45.35;21.65;;;;;;;;;;5031161;28;20059;-83
2022/08/18 05:07:29;;;;;;;38.83;18.45;;;;;;;;;;5029109;28;20087;-83
2022/08/18 05:09:55;;;;;;;36.90;17.88;;;;;;;;;;5028392;28;20033;-87
2022/08/18 05:12:20;;;;;;;43.30;20.80;;;;;;;;;;5023375;28;20034;-84
2022/08/18 05:14:46;;;;;;;41.05;22.60;;;;;;;;;;5042778;28;20121;-84
2022/08/18 05:17:12;;;;;;;45.55;20.02;;;;;;;;;;5025237;28;20057;-84
2022/08/18 05:19:37;;;;;;;38.55;19.90;;;;;;;;;;5053719;28;20029;-87
2022/08/18 05:22:06;;;;;;;39.22;20.63;;;;;;;;;;5062378;28;20022;-84
2022/08/18 05:24:34;;;;;;;36.08;19.38;;;;;;;;;;5027503;28;20022;-87
2022/08/18 05:26:59;;;;;;;39.47;20.92;;;;;;;;;;5027008;28;20385;-87
2022/08/18 05:29:24;;;;;;;38.58;20.88;;;;;;;;;;5025964;28;20010;-83
2022/08/18 05:31:50;;;;;;;40.78;18.95;;;;;;;;;;5028196;28;20041;-86
2022/08/18 05:34:16;;;;;;;39.33;20.40;;;;;;;;;;5024172;28;20025;-87
2022/08/18 05:36:47;;;;;;;39.53;19.02;;;;;;;;;;5025692;28;20128;-84
2022/08/18 05:39:28;;;;;;;38.33;19.20;;;;;;;;;;5035292;28;20037;-84
2022/08/18 05:41:53;;;;;;;28.33;17.67;;;;;;;;;;5027603;28;20100;-83
2022/08/18 05:44:24;;;;;;;44.67;22.38;;;;;;;;;;5035701;28;20364;-86
2022/08/18 05:46:58;;;;;;;34.13;17.58;;;;;;;;;;5037690;28;20029;-84
2022/08/18 05:49:24;;;;;;;39.72;20.08;;;;;;;;;;5019522;28;20032;-84
2022/08/18 05:51:53;;;;;;;35.83;19.63;;;;;;;;;;5014850;28;20124;-84
2022/08/18 05:57:06;;;;;;;36.03;20.70;;;;;;;;;;5023357;28;20053;-86
2022/08/18 05:59:33;;;;;;;50.08;28.13;;;;;;;;;;5025296;28;20072;-84
2022/08/18 06:02:13;;;;;;;37.78;19.15;;;;;;;;;;5054668;28;20029;-84
2022/08/18 06:04:41;;;;;;;40.15;21.02;;;;;;;;;;5021077;28;20021;-84
2022/08/18 06:07:08;;;;;;;57.72;25.58;;;;;;;;;;5023041;28;20030;-85
2022/08/18 06:09:37;;;;;;;33.00;18.67;;;;;;;;;;5026240;28;20045;-84
2022/08/18 06:12:16;;;;;;;40.63;18.75;;;;;;;;;;5030399;28;20026;-85
2022/08/18 06:14:41;;;;;;;39.25;18.70;;;;;;;;;;5022421;28;20037;-87
2022/08/18 06:17:26;;;;;;;35.92;18.60;;;;;;;;;;5038903;28;20398;-79
2022/08/18 06:20:17;;;;;;;27.30;15.20;;;;;;;;;;5017784;28;20576;-85
2022/08/18 06:22:47;;;;;;;35.08;16.42;;;;;;;;;;5005426;28;20041;-83
2022/08/18 06:25:24;;;;;;;27.33;15.57;;;;;;;;;;5026090;28;20029;-85
2022/08/18 06:27:58;;;;;;;27.77;16.15;;;;;;;;;;5024378;28;20022;-84
2022/08/18 06:30:24;;;;;;;34.55;17.48;;;;;;;;;;5021542;28;20158;-85
2022/08/18 06:32:51;;;;;;;30.85;16.02;;;;;;;;;;5040350;28;20495;-84
2022/08/18 06:35:28;;;;;;;28.52;15.35;;;;;;;;;;5028415;28;20018;-84
2022/08/18 06:41:03;;;;;;;33.22;19.33;;;;;;;;;;5026465;28;20547;-84
2022/08/18 06:43:31;;;;;;;35.33;15.48;;;;;;;;;;5035365;28;20017;-85
2022/08/18 06:45:56;;;;;;;35.78;15.93;;;;;;;;;;5035703;28;20022;-82
2022/08/18 06:48:41;;;;;;;31.75;15.55;;;;;;;;;;5026074;28;20381;-84
2022/08/18 06:51:07;;;;;;;33.13;16.70;;;;;;;;;;5061642;28;20037;-84
2022/08/18 06:53:48;;;;;;;25.58;14.20;;;;;;;;;;5063739;28;20084;-84
2022/08/18 06:56:22;;;;;;;18.20;12.77;;;;;;;;;;5033404;28;20037;-85
2022/08/18 06:58:47;;;;;;;26.10;13.75;;;;;;;;;;5033866;28;20033;-84
2022/08/18 07:01:13;;;;;;;22.98;12.55;;;;;;;;;;5023781;28;20517;-85
2022/08/18 07:03:38;;;;;;;29.35;11.63;;;;;;;;;;5027457;28;20026;-83
2022/08/18 07:06:09;;;;;;;24.10;9.97;;;;;;;;;;5044586;28;20033;-84
2022/08/18 07:08:37;;;;;;;23.85;10.55;;;;;;;;;;5030614;28;20290;-85
2022/08/18 07:11:11;;;;;;;26.85;10.75;;;;;;;;;;5058217;28;20120;-83
2022/08/18 07:13:38;;;;;;;18.98;9.77;;;;;;;;;;5040531;28;20040;-84
2022/08/18 07:16:21;;;;;;;23.13;11.13;;;;;;;;;;5027859;28;20026;-85
2022/08/18 07:18:47;;;;;;;19.98;9.65;;;;;;;;;;5031265;28;20535;-85
2022/08/18 07:21:27;;;;;;;13.07;9.02;;;;;;;;;;5029955;28;20037;-85
2022/08/18 07:24:01;;;;;;;13.40;8.70;;;;;;;;;;5026016;28;20024;-84
2022/08/18 07:26:29;;;;;;;16.25;7.95;;;;;;;;;;5030972;28;20083;-84
2022/08/18 07:29:10;;;;;;;18.80;8.40;;;;;;;;;;5029147;28;20107;-85
2022/08/18 07:31:46;;;;;;;26.92;9.80;;;;;;;;;;5032569;28;20077;-85
2022/08/18 07:34:11;;;;;;;16.55;9.02;;;;;;;;;;5046772;28;20022;-85
2022/08/18 07:36:52;;;;;;;16.90;8.80;;;;;;;;;;5029607;28;20402;-85
2022/08/18 07:39:20;;;;;;;15.63;9.60;;;;;;;;;;5028644;28;20282;-84
2022/08/18 07:41:51;;;;;;;20.88;10.45;;;;;;;;;;5027457;28;20037;-84
2022/08/18 07:44:23;;;;;;;12.18;8.02;;;;;;;;;;5023269;28;20022;-84
2022/08/18 07:47:00;;;;;;;19.70;9.45;;;;;;;;;;5029337;28;20470;-86
2022/08/18 07:49:27;;;;;;;14.73;8.63;;;;;;;;;;5028337;28;20029;-84
2022/08/18 07:52:02;;;;;;;14.20;9.10;;;;;;;;;;5028295;28;20049;-84
2022/08/18 07:54:30;;;;;;;15.00;10.00;;;;;;;;;;5026651;28;20044;-85
2022/08/18 07:56:55;;;;;;;14.32;8.20;;;;;;;;;;5042549;28;20033;-85
2022/08/18 07:59:39;;;;;;;19.77;9.30;;;;;;;;;;5024100;28;21317;-84
2022/08/18 08:02:23;;;;;;;15.82;8.13;;;;;;;;;;5024096;28;20313;-86
2022/08/18 08:04:57;;;;;;;18.20;8.82;;;;;;;;;;5039129;28;20064;-84
2022/08/18 08:07:28;;;;;;;17.45;7.78;;;;;;;;;;5026887;28;20105;-86
2022/08/18 08:10:05;;;;;;;19.35;9.30;;;;;;;;;;5037612;28;20037;-84
2022/08/18 08:12:31;;;;;;;13.23;8.60;;;;;;;;;;5025797;28;20069;-85
2022/08/18 08:15:05;;;;;;;13.48;8.07;;;;;;;;;;5028049;28;20068;-85
2022/08/18 08:17:34;;;;;;;14.38;7.57;;;;;;;;;;5030212;28;20025;-86
2022/08/18 08:20:20;;;;;;;14.52;8.02;;;;;;;;;;5046138;28;20052;-85
2022/08/18 08:22:55;;;;;;;13.50;7.95;;;;;;;;;;5028685;28;20037;-85
2022/08/18 08:25:25;;;;;;;13.32;8.55;;;;;;;;;;5047060;28;20037;-85
2022/08/18 08:27:51;;;;;;;15.13;7.40;;;;;;;;;;5034722;28;20067;-85
2022/08/18 08:30:18;;;;;;;15.13;6.93;;;;;;;;;;5028164;28;20025;-85
2022/08/18 08:32:51;;;;;;;13.52;7.85;;;;;;;;;;5025717;28;20029;-86
2022/08/18 08:35:32;;;;;;;16.23;8.23;;;;;;;;;;5029112;28;20029;-85
2022/08/18 08:38:00;;;;;;;13.27;6.97;;;;;;;;;;5025981;28;20033;-86
2022/08/18 08:40:26;;;;;;;14.98;7.65;;;;;;;;;;5041712;28;20013;-86
2022/08/18 08:43:03;;;;;;;14.45;7.22;;;;;;;;;;5041024;28;20354;-85
2022/08/18 08:45:31;;;;;;;14.63;7.72;;;;;;;;;;5025001;28;20044;-86
2022/08/18 08:47:59;;;;;;;15.77;7.15;;;;;;;;;;5045701;28;20037;-86
2022/08/18 08:50:26;;;;;;;13.85;7.50;;;;;;;;;;5032967;28;20060;-86
2022/08/18 08:53:10;;;;;;;10.85;7.35;;;;;;;;;;5034687;28;20719;-86
2022/08/18 08:55:40;;;;;;;18.05;7.30;;;;;;;;;;5031531;28;20047;-85
2022/08/18 08:58:15;;;;;;;11.73;7.68;;;;;;;;;;5044320;28;20041;-86
2022/08/18 09:00:42;;;;;;;8.55;6.65;;;;;;;;;;5061395;28;20424;-85
2022/08/18 09:03:26;;;;;;;11.95;6.05;;;;;;;;;;5049614;28;20113;-85
2022/08/18 09:05:55;;;;;;;12.85;6.47;;;;;;;;;;5044697;28;20079;-80
2022/08/18 09:08:39;;;;;;;13.88;7.10;;;;;;;;;;5024359;28;20126;-81
2022/08/18 09:11:28;;;;;;;10.25;6.60;;;;;;;;;;5026888;28;20018;-80
2022/08/18 09:13:54;;;;;;;10.93;6.30;;;;;;;;;;5038669;28;20120;-80
2022/08/18 09:16:23;;;;;;;13.30;6.60;;;;;;;;;;5021393;28;20125;-81
2022/08/18 09:18:51;;;;;;;11.93;5.90;;;;;;;;;;5023940;28;20104;-78
2022/08/18 09:21:31;;;;;;;13.75;6.00;;;;;;;;;;5041622;28;20777;-80
2022/08/18 09:24:04;;;;;;;14.88;5.97;;;;;;;;;;5041419;28;20067;-80
2022/08/18 09:26:41;;;;;;;10.93;5.15;;;;;;;;;;5025153;28;20041;-80
2022/08/18 09:29:22;;;;;;;11.68;5.75;;;;;;;;;;5037022;28;20075;-79
2022/08/18 09:31:47;;;;;;;11.90;6.07;;;;;;;;;;5025719;28;20151;-80
2022/08/18 09:34:45;;;;;;;13.48;6.32;;;;;;;;;;5041393;28;20117;-80
2022/08/18 09:37:22;;;;;;;11.93;5.28;;;;;;;;;;4988555;28;20555;-80
2022/08/18 09:42:55;;;;;;;23.73;5.97;;;;;;;;;;5026644;28;20091;-80
2022/08/18 09:45:30;;;;;;;8.95;4.75;;;;;;;;;;5026009;28;20462;-80
2022/08/18 09:47:56;;;;;;;9.60;4.82;;;;;;;;;;5021525;28;20040;-80
2022/08/18 09:50:26;;;;;;;7.18;4.22;;;;;;;;;;5019711;28;20034;-80
2022/08/18 09:52:52;;;;;;;13.85;4.93;;;;;;;;;;5034072;28;20094;-80
2022/08/18 09:55:17;;;;;;;9.80;4.53;;;;;;;;;;5022466;28;20532;-81
2022/08/18 09:57:43;;;;;;;11.27;5.60;;;;;;;;;;5014863;28;20041;-81
2022/08/18 10:00:12;;;;;;;6.72;4.68;;;;;;;;;;5017762;28;20624;-80
2022/08/18 10:02:38;;;;;;;15.73;4.97;;;;;;;;;;5022210;28;20509;-80
2022/08/18 10:05:21;;;;;;;12.65;6.00;;;;;;;;;;5038307;28;20116;-81
2022/08/18 10:07:48;;;;;;;11.43;5.50;;;;;;;;;;5034392;28;20379;-80
2022/08/18 10:10:13;;;;;;;17.10;6.50;;;;;;;;;;5019870;28;20042;-81
2022/08/18 10:12:51;;;;;;;15.87;6.50;;;;;;;;;;5025449;28;20030;-80
2022/08/18 10:15:34;;;;;;;18.45;5.55;;;;;;;;;;5023837;28;20367;-81
2022/08/18 10:18:18;;;;;;;11.00;6.63;;;;;;;;;;5023176;28;20490;-80
2022/08/18 10:20:51;;;;;;;11.80;6.30;;;;;;;;;;5024013;28;20022;-79
2022/08/18 10:23:35;;;;;;;15.93;6.35;;;;;;;;;;5048533;28;21106;-79
2022/08/18 10:26:00;;;;;;;18.13;7.30;;;;;;;;;;5025798;28;20021;-80
2022/08/18 10:28:47;;;;;;;18.17;6.32;;;;;;;;;;5023055;28;20037;-79
2022/08/18 10:31:12;;;;;;;16.23;6.15;;;;;;;;;;5015891;28;20879;-79
2022/08/18 10:33:56;;;;;;;12.23;6.30;;;;;;;;;;5021962;28;20017;-79
2022/08/18 10:36:40;;;;;;;12.30;7.30;;;;;;;;;;5017944;28;20033;-79
2022/08/18 10:39:09;;;;;;;16.10;7.35;;;;;;;;;;5057691;28;20071;-79
2022/08/18 10:41:36;;;;;;;12.77;6.05;;;;;;;;;;5030322;28;20037;-78
2022/08/18 10:44:02;;;;;;;10.35;6.57;;;;;;;;;;5031550;28;20111;-79
2022/08/18 10:46:30;;;;;;;17.85;6.43;;;;;;;;;;5033627;28;20482;-79
2022/08/18 10:49:13;;;;;;;13.85;5.70;;;;;;;;;;5046895;28;20030;-79
2022/08/18 10:51:44;;;;;;;20.15;8.57;;;;;;;;;;5048032;28;20037;-79
2022/08/18 10:54:27;;;;;;;10.57;5.82;;;;;;;;;;5033223;28;20025;-79
2022/08/18 10:57:13;;;;;;;13.35;6.20;;;;;;;;;;5042432;28;20079;-79
2022/08/18 10:59:43;;;;;;;13.48;6.68;;;;;;;;;;5010875;28;20500;-80
2022/08/18 11:02:09;;;;;;;11.75;6.30;;;;;;;;;;5040673;28;20030;-80
2022/08/18 11:04:42;;;;;;;10.93;7.22;;;;;;;;;;5030253;28;20029;-80
2022/08/18 11:07:13;;;;;;;13.50;7.45;;;;;;;;;;5028970;28;20412;-79
2022/08/18 11:09:40;;;;;;;13.32;7.05;;;;;;;;;;5045077;28;20038;-79
2022/08/18 11:12:10;;;;;;;11.45;6.07;;;;;;;;;;5028780;28;20067;-80
2022/08/18 11:14:38;;;;;;;14.57;5.90;;;;;;;;;;5027756;28;20021;-79
2022/08/18 11:17:14;;;;;;;9.60;6.35;;;;;;;;;;5029342;28;20496;-79
2022/08/18 11:19:41;;;;;;;9.60;5.43;;;;;;;;;;5029533;28;20481;-80
2022/08/18 11:22:19;;;;;;;12.15;6.22;;;;;;;;;;5044228;28;20033;-80
2022/08/18 11:24:44;;;;;;;11.85;7.70;;;;;;;;;;5041961;28;20022;-80
2022/08/18 11:27:17;;;;;;;10.98;5.47;;;;;;;;;;5028939;28;20083;-79
2022/08/18 11:29:43;;;;;;;10.95;4.93;;;;;;;;;;5027020;28;20033;-79
2022/08/18 11:32:08;;;;;;;11.63;4.80;;;;;;;;;;5044209;28;20373;-79
2022/08/18 11:34:41;;;;;;;10.17;4.37;;;;;;;;;;5040824;28;20041;-79
2022/08/18 11:37:18;;;;;;;7.65;4.22;;;;;;;;;;5010237;28;20829;-80
2022/08/18 11:39:48;;;;;;;7.82;4.43;;;;;;;;;;5026302;28;20040;-80
2022/08/18 11:42:14;;;;;;;8.05;3.75;;;;;;;;;;5025977;28;20394;-80
2022/08/18 11:44:39;;;;;;;10.40;3.90;;;;;;;;;;5029643;28;20029;-80
2022/08/18 11:47:12;;;;;;;6.53;3.53;;;;;;;;;;5029659;28;20033;-79
2022/08/18 11:49:44;;;;;;;4.25;3.60;;;;;;;;;;5028338;28;22276;-80
2022/08/18 11:52:16;;;;;;;4.95;3.60;;;;;;;;;;5042404;28;20083;-79
2022/08/18 11:54:43;;;;;;;3.58;2.60;;;;;;;;;;5023139;28;20026;-80
2022/08/18 11:57:28;;;;;;;6.18;3.42;;;;;;;;;;5029383;28;20060;-80
2022/08/18 11:59:54;;;;;;;3.97;2.78;;;;;;;;;;5024399;28;20996;-80
2022/08/18 12:02:21;;;;;;;4.68;3.08;;;;;;;;;;5024902;28;20056;-80
2022/08/18 12:04:51;;;;;;;7.88;3.22;;;;;;;;;;5038670;28;20159;-81
2022/08/18 12:07:25;;;;;;;3.67;3.25;;;;;;;;;;5028797;28;20355;-80
2022/08/18 12:10:11;;;;;;;4.07;3.30;;;;;;;;;;5025074;28;20068;-80
2022/08/18 12:12:43;;;;;;;5.97;3.58;;;;;;;;;;5047261;28;20367;-80
2022/08/18 12:15:11;;;;;;;5.00;2.95;;;;;;;;;;5047702;28;20025;-80
2022/08/18 12:17:36;;;;;;;5.28;3.15;;;;;;;;;;5025140;28;20037;-81
2022/08/18 12:20:04;;;;;;;4.97;2.85;;;;;;;;;;5031257;28;20052;-80
2022/08/18 12:22:33;;;;;;;5.90;3.55;;;;;;;;;;5031918;28;20089;-81
2022/08/18 12:24:59;;;;;;;5.32;3.13;;;;;;;;;;5030135;28;20460;-81
2022/08/18 12:27:25;;;;;;;4.63;3.33;;;;;;;;;;5042118;28;20034;-80
2022/08/18 12:29:52;;;;;;;5.10;3.13;;;;;;;;;;5057618;28;20035;-80
2022/08/18 12:32:18;;;;;;;11.02;4.35;;;;;;;;;;5028894;28;20025;-81
2022/08/18 12:34:46;;;;;;;9.23;3.75;;;;;;;;;;5027471;28;20025;-80
2022/08/18 12:37:16;;;;;;;7.03;3.38;;;;;;;;;;5027631;28;20025;-80
2022/08/18 12:39:42;;;;;;;6.13;3.38;;;;;;;;;;5042409;28;20037;-81
2022/08/18 12:42:07;;;;;;;6.22;3.53;;;;;;;;;;5023030;28;20032;-80
2022/08/18 12:44:33;;;;;;;7.18;3.90;;;;;;;;;;5028899;28;20083;-81
2022/08/18 12:46:59;;;;;;;6.97;3.58;;;;;;;;;;5023020;28;20099;-80
2022/08/18 12:49:25;;;;;;;4.70;3.78;;;;;;;;;;5041850;28;20460;-81
2022/08/18 12:51:50;;;;;;;6.22;3.53;;;;;;;;;;5018702;28;20108;-81
2022/08/18 12:54:19;;;;;;;7.05;3.22;;;;;;;;;;5014117;28;20047;-81
2022/08/18 12:56:45;;;;;;;5.18;3.67;;;;;;;;;;5023415;28;20028;-80
2022/08/18 12:59:11;;;;;;;8.25;3.90;;;;;;;;;;5024535;28;20017;-80
2022/08/18 13:01:37;;;;;;;7.00;3.60;;;;;;;;;;5022614;28;20482;-81
2022/08/18 13:04:03;;;;;;;5.32;3.22;;;;;;;;;;5016428;28;20112;-82
2022/08/18 13:06:29;;;;;;;7.72;4.30;;;;;;;;;;5021264;28;20497;-82
2022/08/18 13:08:55;;;;;;;6.05;3.60;;;;;;;;;;5021190;28;20037;-81
2022/08/18 13:11:21;;;;;;;6.18;3.53;;;;;;;;;;5035386;28;20473;-81
2022/08/18 13:13:46;;;;;;;5.03;3.53;;;;;;;;;;5011681;28;20235;-81
2022/08/18 13:16:12;;;;;;;6.93;3.55;;;;;;;;;;5021196;28;20477;-82
2022/08/18 13:18:41;;;;;;;8.10;4.28;;;;;;;;;;5024217;28;20017;-82
2022/08/18 13:21:11;;;;;;;7.68;3.45;;;;;;;;;;5024774;28;20025;-81
2022/08/18 13:23:36;;;;;;;5.05;3.30;;;;;;;;;;5019500;28;20491;-80
2022/08/18 13:26:03;;;;;;;5.40;3.60;;;;;;;;;;5021925;28;20049;-80
2022/08/18 13:28:29;;;;;;;5.80;3.50;;;;;;;;;;5023366;28;20037;-83
2022/08/18 13:30:54;;;;;;;6.93;3.72;;;;;;;;;;5027633;28;20389;-80
2022/08/18 13:33:20;;;;;;;3.72;3.33;;;;;;;;;;5033007;28;20021;-81
2022/08/18 13:35:46;;;;;;;6.53;3.83;;;;;;;;;;5023240;28;20041;-82
2022/08/18 13:38:12;;;;;;;6.18;3.65;;;;;;;;;;5018791;28;20289;-80
2022/08/18 13:40:37;;;;;;;5.20;3.63;;;;;;;;;;5016152;28;20107;-82
2022/08/18 13:43:03;;;;;;;5.53;3.65;;;;;;;;;;5021242;28;20083;-81
2022/08/18 13:45:28;;;;;;;6.32;3.60;;;;;;;;;;5022126;28;20057;-81
2022/08/18 13:47:53;;;;;;;6.18;3.55;;;;;;;;;;5028772;28;20239;-81
2022/08/18 13:50:19;;;;;;;7.10;3.60;;;;;;;;;;5044303;28;20025;-81
2022/08/18 13:52:44;;;;;;;6.07;3.38;;;;;;;;;;5039223;28;20109;-81
2022/08/18 13:55:15;;;;;;;10.35;3.42;;;;;;;;;;5021725;28;20819;-81
2022/08/18 13:57:46;;;;;;;5.20;3.50;;;;;;;;;;5031288;28;20018;-81
2022/08/18 14:00:12;;;;;;;11.60;4.20;;;;;;;;;;5022506;28;20033;-81
2022/08/18 14:02:39;;;;;;;11.60;3.63;;;;;;;;;;5019292;28;20036;-81
2022/08/18 14:05:06;;;;;;;4.43;3.30;;;;;;;;;;5022228;28;20026;-81
2022/08/18 14:07:31;;;;;;;7.13;3.70;;;;;;;;;;5018376;28;20036;-81
2022/08/18 14:09:56;;;;;;;8.25;4.13;;;;;;;;;;5020352;28;20370;-81
2022/08/18 14:12:22;;;;;;;8.70;4.57;;;;;;;;;;5022489;28;20489;-81
2022/08/18 14:14:48;;;;;;;6.05;3.95;;;;;;;;;;5036277;28;20392;-84
2022/08/18 14:17:14;;;;;;;7.18;3.78;;;;;;;;;;5035262;28;20037;-84
2022/08/18 14:27:51;;;;;;;5.43;3.92;;;;;;;;;;5018096;28;20036;-78
2022/08/18 14:30:17;;;;;;;6.03;3.60;;;;;;;;;;5010108;28;20029;-77
2022/08/18 14:32:43;;;;;;;6.07;3.80;;;;;;;;;;5015554;28;20516;-77
2022/08/18 14:35:10;;;;;;;6.05;3.92;;;;;;;;;;5011868;28;20195;-77
2022/08/18 14:37:35;;;;;;;6.28;3.83;;;;;;;;;;5009863;28;20543;-79
2022/08/18 14:40:00;;;;;;;7.13;4.07;;;;;;;;;;5021330;28;20025;-80
2022/08/18 14:42:26;;;;;;;5.53;3.60;;;;;;;;;;5022213;28;20290;-77
2022/08/18 14:44:51;;;;;;;7.15;3.47;;;;;;;;;;5037990;28;20059;-78
2022/08/18 14:47:16;;;;;;;7.18;4.05;;;;;;;;;;5019873;28;20025;-77
2022/08/18 14:49:42;;;;;;;5.93;3.75;;;;;;;;;;5020951;28;20018;-79
2022/08/18 14:52:09;;;;;;;4.60;4.07;;;;;;;;;;5017626;28;20034;-79
2022/08/18 14:54:35;;;;;;;7.18;3.67;;;;;;;;;;5020242;28;20071;-85
2022/08/18 14:57:01;;;;;;;8.82;3.83;;;;;;;;;;5041454;28;20042;-86
2022/08/18 14:59:29;;;;;;;5.20;3.75;;;;;;;;;;5056426;28;20040;-87
2022/08/18 15:01:55;;;;;;;7.30;4.18;;;;;;;;;;5041041;28;21574;-86
2022/08/18 15:04:20;;;;;;;4.00;3.53;;;;;;;;;;5040595;28;20028;-83